sensor_id;sensor_type;location;lat;lon;timestamp;P1;durP1;ratioP1;P2;durP2;ratioP2
33190;SDS011;19554;42.652;23.364;2023-10-08T00:01:28;9.82;;;4.45;;
33190;SDS011;19554;42.652;23.364;2023-10-08T00:03:58;11.93;;;4.83;;
33190;SDS011;19554;42.652;23.364;2023-10-08T00:06:25;7.53;;;4.30;;
33190;SDS011;19554;42.652;23.364;2023-10-08T00:08:52;12.35;;;5.00;;
33190;SDS011;19554;42.652;23.364;2023-10-08T00:11:24;10.20;;;4.20;;
33190;SDS011;19554;42.652;23.364;2023-10-08T00:13:50;10.65;;;4.30;;
33190;SDS011;19554;42.652;23.364;2023-10-08T00:16:20;11.40;;;5.03;;
33190;SDS011;19554;42.652;23.364;2023-10-08T00:18:47;10.05;;;4.40;;
33190;SDS011;19554;42.652;23.364;2023-10-08T00:21:16;9.57;;;4.68;;
33190;SDS011;19554;42.652;23.364;2023-10-08T00:23:44;7.95;;;4.22;;
33190;SDS011;19554;42.652;23.364;2023-10-08T00:26:25;8.13;;;4.25;;
33190;SDS011;19554;42.652;23.364;2023-10-08T00:29:03;13.05;;;5.25;;
33190;SDS011;19554;42.652;23.364;2023-10-08T00:31:40;11.38;;;4.75;;
33190;SDS011;19554;42.652;23.364;2023-10-08T00:34:07;8.27;;;4.40;;
33190;SDS011;19554;42.652;23.364;2023-10-08T00:36:45;8.15;;;4.30;;
33190;SDS011;19554;42.652;23.364;2023-10-08T00:39:13;11.77;;;4.38;;
33190;SDS011;19554;42.652;23.364;2023-10-08T00:41:43;7.35;;;4.30;;
33190;SDS011;19554;42.652;23.364;2023-10-08T00:44:10;11.95;;;4.50;;
33190;SDS011;19554;42.652;23.364;2023-10-08T00:47:03;7.57;;;4.85;;
33190;SDS011;19554;42.652;23.364;2023-10-08T00:49:30;9.75;;;4.70;;
33190;SDS011;19554;42.652;23.364;2023-10-08T00:52:08;10.90;;;4.72;;
33190;SDS011;19554;42.652;23.364;2023-10-08T00:54:35;9.23;;;4.35;;
33190;SDS011;19554;42.652;23.364;2023-10-08T00:57:22;10.43;;;5.22;;
33190;SDS011;19554;42.652;23.364;2023-10-08T00:59:52;10.43;;;4.10;;
33190;SDS011;19554;42.652;23.364;2023-10-08T01:02:22;10.70;;;4.30;;
33190;SDS011;19554;42.652;23.364;2023-10-08T01:04:52;7.65;;;4.22;;
33190;SDS011;19554;42.652;23.364;2023-10-08T01:07:19;8.05;;;4.18;;
33190;SDS011;19554;42.652;23.364;2023-10-08T01:09:46;9.27;;;4.22;;
33190;SDS011;19554;42.652;23.364;2023-10-08T01:12:30;8.68;;;4.68;;
33190;SDS011;19554;42.652;23.364;2023-10-08T01:14:59;8.85;;;4.32;;
33190;SDS011;19554;42.652;23.364;2023-10-08T01:17:49;10.43;;;4.43;;
33190;SDS011;19554;42.652;23.364;2023-10-08T01:20:29;7.65;;;4.65;;
33190;SDS011;19554;42.652;23.364;2023-10-08T01:23:15;8.30;;;4.35;;
33190;SDS011;19554;42.652;23.364;2023-10-08T01:28:24;11.75;;;4.93;;
33190;SDS011;19554;42.652;23.364;2023-10-08T01:30:49;8.82;;;4.88;;
33190;SDS011;19554;42.652;23.364;2023-10-08T01:33:18;8.60;;;4.45;;
33190;SDS011;19554;42.652;23.364;2023-10-08T01:35:46;9.18;;;4.50;;
33190;SDS011;19554;42.652;23.364;2023-10-08T01:38:13;8.95;;;4.32;;
33190;SDS011;19554;42.652;23.364;2023-10-08T01:40:40;7.65;;;4.90;;
33190;SDS011;19554;42.652;23.364;2023-10-08T01:43:06;11.52;;;4.47;;
33190;SDS011;19554;42.652;23.364;2023-10-08T01:45:35;10.77;;;4.90;;
33190;SDS011;19554;42.652;23.364;2023-10-08T01:48:04;7.57;;;4.45;;
33190;SDS011;19554;42.652;23.364;2023-10-08T01:50:30;6.15;;;4.07;;
33190;SDS011;19554;42.652;23.364;2023-10-08T01:52:59;9.45;;;4.45;;
33190;SDS011;19554;42.652;23.364;2023-10-08T01:55:25;11.20;;;5.00;;
33190;SDS011;19554;42.652;23.364;2023-10-08T01:57:51;9.82;;;4.35;;
33190;SDS011;19554;42.652;23.364;2023-10-08T02:00:17;8.43;;;4.18;;
33190;SDS011;19554;42.652;23.364;2023-10-08T02:02:51;10.00;;;4.75;;
33190;SDS011;19554;42.652;23.364;2023-10-08T02:05:23;15.00;;;5.25;;
33190;SDS011;19554;42.652;23.364;2023-10-08T02:07:48;13.23;;;5.60;;
33190;SDS011;19554;42.652;23.364;2023-10-08T02:10:14;13.73;;;5.40;;
33190;SDS011;19554;42.652;23.364;2023-10-08T02:12:39;14.90;;;6.03;;
33190;SDS011;19554;42.652;23.364;2023-10-08T02:15:06;11.40;;;5.22;;
33190;SDS011;19554;42.652;23.364;2023-10-08T02:17:33;7.85;;;4.38;;
33190;SDS011;19554;42.652;23.364;2023-10-08T02:19:58;10.35;;;5.03;;
33190;SDS011;19554;42.652;23.364;2023-10-08T02:22:24;12.18;;;4.85;;
33190;SDS011;19554;42.652;23.364;2023-10-08T02:24:49;8.32;;;4.30;;
33190;SDS011;19554;42.652;23.364;2023-10-08T02:27:16;9.88;;;4.15;;
33190;SDS011;19554;42.652;23.364;2023-10-08T02:29:41;12.75;;;4.65;;
33190;SDS011;19554;42.652;23.364;2023-10-08T02:32:07;11.20;;;4.60;;
33190;SDS011;19554;42.652;23.364;2023-10-08T02:34:33;9.73;;;3.90;;
33190;SDS011;19554;42.652;23.364;2023-10-08T02:37:00;11.50;;;4.32;;
33190;SDS011;19554;42.652;23.364;2023-10-08T02:39:28;6.63;;;4.15;;
33190;SDS011;19554;42.652;23.364;2023-10-08T02:41:55;9.63;;;4.88;;
33190;SDS011;19554;42.652;23.364;2023-10-08T02:44:24;9.23;;;4.75;;
33190;SDS011;19554;42.652;23.364;2023-10-08T02:46:49;17.23;;;5.47;;
33190;SDS011;19554;42.652;23.364;2023-10-08T02:49:16;15.20;;;5.32;;
33190;SDS011;19554;42.652;23.364;2023-10-08T02:51:49;7.85;;;4.28;;
33190;SDS011;19554;42.652;23.364;2023-10-08T02:54:16;8.90;;;4.70;;
33190;SDS011;19554;42.652;23.364;2023-10-08T02:56:46;6.38;;;4.22;;
33190;SDS011;19554;42.652;23.364;2023-10-08T02:59:16;11.02;;;4.53;;
33190;SDS011;19554;42.652;23.364;2023-10-08T03:01:48;10.38;;;4.88;;
33190;SDS011;19554;42.652;23.364;2023-10-08T03:04:21;8.65;;;4.53;;
33190;SDS011;19554;42.652;23.364;2023-10-08T03:06:50;8.73;;;3.78;;
33190;SDS011;19554;42.652;23.364;2023-10-08T03:09:20;9.57;;;4.30;;
33190;SDS011;19554;42.652;23.364;2023-10-08T03:11:50;13.45;;;4.53;;
33190;SDS011;19554;42.652;23.364;2023-10-08T03:14:16;12.38;;;4.47;;
33190;SDS011;19554;42.652;23.364;2023-10-08T03:16:49;10.50;;;5.05;;
33190;SDS011;19554;42.652;23.364;2023-10-08T03:19:16;13.85;;;5.10;;
33190;SDS011;19554;42.652;23.364;2023-10-08T03:21:45;14.20;;;5.03;;
33190;SDS011;19554;42.652;23.364;2023-10-08T03:24:16;10.73;;;4.68;;
33190;SDS011;19554;42.652;23.364;2023-10-08T03:26:59;14.80;;;5.15;;
33190;SDS011;19554;42.652;23.364;2023-10-08T03:29:52;10.65;;;5.03;;
33190;SDS011;19554;42.652;23.364;2023-10-08T03:32:19;11.30;;;4.90;;
33190;SDS011;19554;42.652;23.364;2023-10-08T03:34:51;17.55;;;5.63;;
33190;SDS011;19554;42.652;23.364;2023-10-08T03:37:20;13.25;;;4.90;;
33190;SDS011;19554;42.652;23.364;2023-10-08T03:39:54;12.05;;;5.20;;
33190;SDS011;19554;42.652;23.364;2023-10-08T03:42:27;12.75;;;5.80;;
33190;SDS011;19554;42.652;23.364;2023-10-08T03:44:59;13.15;;;5.18;;
33190;SDS011;19554;42.652;23.364;2023-10-08T03:47:38;14.23;;;5.15;;
33190;SDS011;19554;42.652;23.364;2023-10-08T03:50:07;13.20;;;5.32;;
33190;SDS011;19554;42.652;23.364;2023-10-08T03:52:36;13.85;;;5.97;;
33190;SDS011;19554;42.652;23.364;2023-10-08T03:55:06;10.65;;;6.22;;
33190;SDS011;19554;42.652;23.364;2023-10-08T03:57:52;13.85;;;5.30;;
33190;SDS011;19554;42.652;23.364;2023-10-08T04:00:24;10.45;;;5.70;;
33190;SDS011;19554;42.652;23.364;2023-10-08T04:02:57;14.38;;;5.35;;
33190;SDS011;19554;42.652;23.364;2023-10-08T04:05:26;10.75;;;5.57;;
33190;SDS011;19554;42.652;23.364;2023-10-08T04:08:12;12.80;;;5.38;;
33190;SDS011;19554;42.652;23.364;2023-10-08T04:10:59;10.13;;;5.88;;
33190;SDS011;19554;42.652;23.364;2023-10-08T04:13:38;11.63;;;5.13;;
33190;SDS011;19554;42.652;23.364;2023-10-08T04:16:10;13.43;;;5.15;;
33190;SDS011;19554;42.652;23.364;2023-10-08T04:18:35;11.70;;;5.38;;
33190;SDS011;19554;42.652;23.364;2023-10-08T04:21:05;9.07;;;5.27;;
33190;SDS011;19554;42.652;23.364;2023-10-08T04:23:37;15.35;;;5.32;;
33190;SDS011;19554;42.652;23.364;2023-10-08T04:26:04;10.77;;;5.05;;
33190;SDS011;19554;42.652;23.364;2023-10-08T04:28:31;9.73;;;5.20;;
33190;SDS011;19554;42.652;23.364;2023-10-08T04:31:00;8.52;;;5.20;;
33190;SDS011;19554;42.652;23.364;2023-10-08T04:33:39;9.73;;;5.07;;
33190;SDS011;19554;42.652;23.364;2023-10-08T04:36:06;10.93;;;4.82;;
33190;SDS011;19554;42.652;23.364;2023-10-08T04:38:32;10.07;;;5.45;;
33190;SDS011;19554;42.652;23.364;2023-10-08T04:41:05;11.35;;;5.07;;
33190;SDS011;19554;42.652;23.364;2023-10-08T04:43:34;10.77;;;5.00;;
33190;SDS011;19554;42.652;23.364;2023-10-08T04:46:03;15.48;;;5.88;;
33190;SDS011;19554;42.652;23.364;2023-10-08T04:48:45;12.10;;;5.57;;
33190;SDS011;19554;42.652;23.364;2023-10-08T04:51:11;12.55;;;5.13;;
33190;SDS011;19554;42.652;23.364;2023-10-08T04:53:40;18.58;;;5.15;;
33190;SDS011;19554;42.652;23.364;2023-10-08T04:56:06;12.38;;;5.07;;
33190;SDS011;19554;42.652;23.364;2023-10-08T04:58:42;11.20;;;5.35;;
33190;SDS011;19554;42.652;23.364;2023-10-08T05:01:11;10.33;;;5.70;;
33190;SDS011;19554;42.652;23.364;2023-10-08T05:03:55;16.00;;;6.13;;
33190;SDS011;19554;42.652;23.364;2023-10-08T05:06:22;18.73;;;5.65;;
33190;SDS011;19554;42.652;23.364;2023-10-08T05:09:00;19.90;;;5.93;;
33190;SDS011;19554;42.652;23.364;2023-10-08T05:11:38;21.35;;;6.30;;
33190;SDS011;19554;42.652;23.364;2023-10-08T05:14:24;18.42;;;5.82;;
33190;SDS011;19554;42.652;23.364;2023-10-08T05:19:43;18.30;;;5.75;;
33190;SDS011;19554;42.652;23.364;2023-10-08T05:22:27;12.90;;;5.50;;
33190;SDS011;19554;42.652;23.364;2023-10-08T05:24:52;17.30;;;5.15;;
33190;SDS011;19554;42.652;23.364;2023-10-08T05:27:38;15.80;;;4.80;;
33190;SDS011;19554;42.652;23.364;2023-10-08T05:30:18;10.55;;;4.68;;
33190;SDS011;19554;42.652;23.364;2023-10-08T05:32:57;13.55;;;5.00;;
33190;SDS011;19554;42.652;23.364;2023-10-08T05:35:38;25.85;;;5.90;;
33190;SDS011;19554;42.652;23.364;2023-10-08T05:38:05;14.00;;;5.43;;
33190;SDS011;19554;42.652;23.364;2023-10-08T05:40:52;15.70;;;5.03;;
33190;SDS011;19554;42.652;23.364;2023-10-08T05:43:24;14.77;;;4.78;;
33190;SDS011;19554;42.652;23.364;2023-10-08T05:46:13;13.00;;;4.82;;
33190;SDS011;19554;42.652;23.364;2023-10-08T05:48:52;13.38;;;5.90;;
33190;SDS011;19554;42.652;23.364;2023-10-08T05:51:31;13.27;;;5.40;;
33190;SDS011;19554;42.652;23.364;2023-10-08T05:54:29;12.15;;;6.03;;
33190;SDS011;19554;42.652;23.364;2023-10-08T05:56:56;15.00;;;4.50;;
33190;SDS011;19554;42.652;23.364;2023-10-08T05:59:34;18.52;;;5.78;;
33190;SDS011;19554;42.652;23.364;2023-10-08T06:02:39;17.38;;;5.50;;
33190;SDS011;19554;42.652;23.364;2023-10-08T06:05:09;21.58;;;5.00;;
33190;SDS011;19554;42.652;23.364;2023-10-08T06:07:39;17.17;;;7.20;;
33190;SDS011;19554;42.652;23.364;2023-10-08T06:10:17;11.20;;;5.78;;
33190;SDS011;19554;42.652;23.364;2023-10-08T06:13:00;9.82;;;5.13;;
33190;SDS011;19554;42.652;23.364;2023-10-08T06:15:35;13.00;;;5.80;;
33190;SDS011;19554;42.652;23.364;2023-10-08T06:18:11;15.63;;;5.97;;
33190;SDS011;19554;42.652;23.364;2023-10-08T06:20:39;12.60;;;5.70;;
33190;SDS011;19554;42.652;23.364;2023-10-08T06:23:08;11.63;;;5.47;;
33190;SDS011;19554;42.652;23.364;2023-10-08T06:25:39;12.65;;;6.32;;
33190;SDS011;19554;42.652;23.364;2023-10-08T06:28:19;11.50;;;5.35;;
33190;SDS011;19554;42.652;23.364;2023-10-08T06:30:49;14.35;;;6.47;;
33190;SDS011;19554;42.652;23.364;2023-10-08T06:33:18;14.50;;;6.35;;
33190;SDS011;19554;42.652;23.364;2023-10-08T06:35:45;13.02;;;6.10;;
33190;SDS011;19554;42.652;23.364;2023-10-08T06:38:29;12.55;;;6.38;;
33190;SDS011;19554;42.652;23.364;2023-10-08T06:40:56;12.18;;;5.78;;
33190;SDS011;19554;42.652;23.364;2023-10-08T06:43:25;13.43;;;5.63;;
33190;SDS011;19554;42.652;23.364;2023-10-08T06:45:52;12.55;;;5.45;;
33190;SDS011;19554;42.652;23.364;2023-10-08T06:48:21;13.07;;;7.00;;
33190;SDS011;19554;42.652;23.364;2023-10-08T06:50:50;12.82;;;6.18;;
33190;SDS011;19554;42.652;23.364;2023-10-08T06:53:32;12.65;;;6.82;;
33190;SDS011;19554;42.652;23.364;2023-10-08T06:55:58;10.98;;;5.57;;
33190;SDS011;19554;42.652;23.364;2023-10-08T06:58:30;13.27;;;5.93;;
33190;SDS011;19554;42.652;23.364;2023-10-08T07:00:58;15.65;;;6.22;;
33190;SDS011;19554;42.652;23.364;2023-10-08T07:03:29;15.77;;;7.15;;
33190;SDS011;19554;42.652;23.364;2023-10-08T07:05:56;13.55;;;6.80;;
33190;SDS011;19554;42.652;23.364;2023-10-08T07:08:31;18.23;;;6.88;;
33190;SDS011;19554;42.652;23.364;2023-10-08T07:10:58;11.85;;;6.68;;
33190;SDS011;19554;42.652;23.364;2023-10-08T07:13:26;12.35;;;6.38;;
33190;SDS011;19554;42.652;23.364;2023-10-08T07:15:54;13.77;;;5.85;;
33190;SDS011;19554;42.652;23.364;2023-10-08T07:18:20;13.40;;;7.35;;
33190;SDS011;19554;42.652;23.364;2023-10-08T07:20:59;12.90;;;7.57;;
33190;SDS011;19554;42.652;23.364;2023-10-08T07:23:37;12.40;;;7.03;;
33190;SDS011;19554;42.652;23.364;2023-10-08T07:26:21;14.63;;;7.10;;
33190;SDS011;19554;42.652;23.364;2023-10-08T07:29:01;12.25;;;7.07;;
33190;SDS011;19554;42.652;23.364;2023-10-08T07:31:33;14.27;;;6.75;;
33190;SDS011;19554;42.652;23.364;2023-10-08T07:33:59;12.73;;;6.90;;
33190;SDS011;19554;42.652;23.364;2023-10-08T07:36:40;11.95;;;7.30;;
33190;SDS011;19554;42.652;23.364;2023-10-08T07:39:13;16.92;;;8.40;;
33190;SDS011;19554;42.652;23.364;2023-10-08T07:41:59;12.52;;;7.32;;
33190;SDS011;19554;42.652;23.364;2023-10-08T07:44:30;13.02;;;7.82;;
33190;SDS011;19554;42.652;23.364;2023-10-08T07:46:56;18.05;;;7.85;;
33190;SDS011;19554;42.652;23.364;2023-10-08T07:49:22;17.42;;;7.95;;
33190;SDS011;19554;42.652;23.364;2023-10-08T07:51:48;14.93;;;8.43;;
33190;SDS011;19554;42.652;23.364;2023-10-08T07:54:26;17.52;;;7.78;;
33190;SDS011;19554;42.652;23.364;2023-10-08T07:56:59;17.13;;;7.75;;
33190;SDS011;19554;42.652;23.364;2023-10-08T07:59:34;19.50;;;7.47;;
33190;SDS011;19554;42.652;23.364;2023-10-08T08:02:08;12.45;;;7.35;;
33190;SDS011;19554;42.652;23.364;2023-10-08T08:04:41;14.50;;;7.30;;
33190;SDS011;19554;42.652;23.364;2023-10-08T08:07:09;12.55;;;6.35;;
33190;SDS011;19554;42.652;23.364;2023-10-08T08:09:42;13.85;;;6.63;;
33190;SDS011;19554;42.652;23.364;2023-10-08T08:12:13;13.50;;;6.85;;
33190;SDS011;19554;42.652;23.364;2023-10-08T08:14:38;8.80;;;5.82;;
33190;SDS011;19554;42.652;23.364;2023-10-08T08:17:06;12.07;;;6.25;;
33190;SDS011;19554;42.652;23.364;2023-10-08T08:19:42;13.70;;;6.22;;
33190;SDS011;19554;42.652;23.364;2023-10-08T08:22:10;10.82;;;6.00;;
33190;SDS011;19554;42.652;23.364;2023-10-08T08:24:40;18.42;;;6.82;;
33190;SDS011;19554;42.652;23.364;2023-10-08T08:27:10;10.67;;;5.93;;
33190;SDS011;19554;42.652;23.364;2023-10-08T08:29:37;13.18;;;6.50;;
33190;SDS011;19554;42.652;23.364;2023-10-08T08:32:12;11.32;;;5.97;;
33190;SDS011;19554;42.652;23.364;2023-10-08T08:34:41;13.25;;;6.45;;
33190;SDS011;19554;42.652;23.364;2023-10-08T08:37:09;17.10;;;6.50;;
33190;SDS011;19554;42.652;23.364;2023-10-08T08:39:36;12.70;;;5.38;;
33190;SDS011;19554;42.652;23.364;2023-10-08T08:42:03;8.23;;;5.20;;
33190;SDS011;19554;42.652;23.364;2023-10-08T08:44:30;10.02;;;4.50;;
33190;SDS011;19554;42.652;23.364;2023-10-08T08:46:58;7.57;;;4.32;;
33190;SDS011;19554;42.652;23.364;2023-10-08T08:49:29;13.05;;;4.32;;
33190;SDS011;19554;42.652;23.364;2023-10-08T08:51:57;18.05;;;4.85;;
33190;SDS011;19554;42.652;23.364;2023-10-08T08:54:25;8.68;;;4.80;;
33190;SDS011;19554;42.652;23.364;2023-10-08T08:56:52;14.00;;;4.63;;
33190;SDS011;19554;42.652;23.364;2023-10-08T08:59:19;10.52;;;5.57;;
33190;SDS011;19554;42.652;23.364;2023-10-08T09:01:45;10.68;;;4.68;;
33190;SDS011;19554;42.652;23.364;2023-10-08T09:04:12;18.67;;;5.70;;
33190;SDS011;19554;42.652;23.364;2023-10-08T09:06:41;8.52;;;4.40;;
33190;SDS011;19554;42.652;23.364;2023-10-08T09:09:07;9.95;;;4.80;;
33190;SDS011;19554;42.652;23.364;2023-10-08T09:11:48;12.93;;;5.95;;
33190;SDS011;19554;42.652;23.364;2023-10-08T09:14:17;13.65;;;7.15;;
33190;SDS011;19554;42.652;23.364;2023-10-08T09:16:46;12.95;;;6.43;;
33190;SDS011;19554;42.652;23.364;2023-10-08T09:19:12;13.32;;;5.80;;
33190;SDS011;19554;42.652;23.364;2023-10-08T09:21:43;10.43;;;5.18;;
33190;SDS011;19554;42.652;23.364;2023-10-08T09:24:24;9.07;;;4.57;;
33190;SDS011;19554;42.652;23.364;2023-10-08T09:26:51;10.98;;;4.60;;
33190;SDS011;19554;42.652;23.364;2023-10-08T09:29:17;10.57;;;5.25;;
33190;SDS011;19554;42.652;23.364;2023-10-08T09:31:51;10.73;;;4.70;;
33190;SDS011;19554;42.652;23.364;2023-10-08T09:34:21;14.45;;;5.47;;
33190;SDS011;19554;42.652;23.364;2023-10-08T09:36:47;10.88;;;4.97;;
33190;SDS011;19554;42.652;23.364;2023-10-08T09:39:15;15.82;;;5.32;;
33190;SDS011;19554;42.652;23.364;2023-10-08T09:41:48;10.13;;;4.57;;
33190;SDS011;19554;42.652;23.364;2023-10-08T09:44:15;12.88;;;4.93;;
33190;SDS011;19554;42.652;23.364;2023-10-08T09:46:43;10.43;;;4.95;;
33190;SDS011;19554;42.652;23.364;2023-10-08T09:49:13;7.88;;;4.30;;
33190;SDS011;19554;42.652;23.364;2023-10-08T09:51:41;20.83;;;4.68;;
33190;SDS011;19554;42.652;23.364;2023-10-08T09:54:15;11.13;;;4.93;;
33190;SDS011;19554;42.652;23.364;2023-10-08T09:56:45;7.40;;;4.78;;
33190;SDS011;19554;42.652;23.364;2023-10-08T09:59:12;14.10;;;5.35;;
33190;SDS011;19554;42.652;23.364;2023-10-08T10:01:40;14.18;;;5.13;;
33190;SDS011;19554;42.652;23.364;2023-10-08T10:04:11;7.15;;;4.40;;
33190;SDS011;19554;42.652;23.364;2023-10-08T10:06:37;19.60;;;5.00;;
33190;SDS011;19554;42.652;23.364;2023-10-08T10:09:04;14.95;;;4.70;;
33190;SDS011;19554;42.652;23.364;2023-10-08T10:11:40;13.75;;;4.55;;
33190;SDS011;19554;42.652;23.364;2023-10-08T10:14:12;7.32;;;4.60;;
33190;SDS011;19554;42.652;23.364;2023-10-08T10:16:38;10.93;;;4.55;;
33190;SDS011;19554;42.652;23.364;2023-10-08T10:19:06;9.68;;;4.80;;
33190;SDS011;19554;42.652;23.364;2023-10-08T10:21:42;6.88;;;4.18;;
33190;SDS011;19554;42.652;23.364;2023-10-08T10:24:21;7.13;;;4.35;;
33190;SDS011;19554;42.652;23.364;2023-10-08T10:27:11;9.52;;;4.03;;
33190;SDS011;19554;42.652;23.364;2023-10-08T10:29:39;7.10;;;4.10;;
33190;SDS011;19554;42.652;23.364;2023-10-08T10:32:09;7.28;;;3.50;;
33190;SDS011;19554;42.652;23.364;2023-10-08T10:34:37;8.43;;;4.28;;
33190;SDS011;19554;42.652;23.364;2023-10-08T10:37:04;11.05;;;4.40;;
33190;SDS011;19554;42.652;23.364;2023-10-08T10:39:53;10.88;;;3.70;;
33190;SDS011;19554;42.652;23.364;2023-10-08T10:42:21;16.90;;;4.65;;
33190;SDS011;19554;42.652;23.364;2023-10-08T10:44:47;9.93;;;4.13;;
33190;SDS011;19554;42.652;23.364;2023-10-08T10:47:19;15.50;;;4.90;;
33190;SDS011;19554;42.652;23.364;2023-10-08T10:49:45;11.50;;;3.78;;
33190;SDS011;19554;42.652;23.364;2023-10-08T10:52:15;8.18;;;3.63;;
33190;SDS011;19554;42.652;23.364;2023-10-08T10:54:56;14.55;;;4.43;;
33190;SDS011;19554;42.652;23.364;2023-10-08T11:00:28;9.38;;;3.70;;
33190;SDS011;19554;42.652;23.364;2023-10-08T11:02:57;8.63;;;3.90;;
33190;SDS011;19554;42.652;23.364;2023-10-08T11:05:35;8.02;;;3.55;;
33190;SDS011;19554;42.652;23.364;2023-10-08T11:08:03;9.85;;;3.72;;
33190;SDS011;19554;42.652;23.364;2023-10-08T11:10:35;8.88;;;3.72;;
33190;SDS011;19554;42.652;23.364;2023-10-08T11:13:04;8.05;;;3.42;;
33190;SDS011;19554;42.652;23.364;2023-10-08T11:15:39;10.55;;;3.75;;
33190;SDS011;19554;42.652;23.364;2023-10-08T11:18:11;13.02;;;3.60;;
33190;SDS011;19554;42.652;23.364;2023-10-08T11:20:40;6.03;;;3.58;;
33190;SDS011;19554;42.652;23.364;2023-10-08T11:23:09;7.20;;;3.65;;
33190;SDS011;19554;42.652;23.364;2023-10-08T11:25:57;11.45;;;3.60;;
33190;SDS011;19554;42.652;23.364;2023-10-08T11:28:27;11.50;;;3.83;;
33190;SDS011;19554;42.652;23.364;2023-10-08T11:30:59;13.27;;;4.03;;
33190;SDS011;19554;42.652;23.364;2023-10-08T11:33:33;11.07;;;3.85;;
33190;SDS011;19554;42.652;23.364;2023-10-08T11:36:04;6.53;;;3.45;;
33190;SDS011;19554;42.652;23.364;2023-10-08T11:38:41;13.15;;;4.38;;
33190;SDS011;19554;42.652;23.364;2023-10-08T11:41:14;11.43;;;4.43;;
33190;SDS011;19554;42.652;23.364;2023-10-08T11:43:50;8.93;;;3.55;;
33190;SDS011;19554;42.652;23.364;2023-10-08T11:46:21;12.73;;;4.18;;
33190;SDS011;19554;42.652;23.364;2023-10-08T11:49:06;8.40;;;4.15;;
33190;SDS011;19554;42.652;23.364;2023-10-08T11:51:33;13.05;;;4.78;;
33190;SDS011;19554;42.652;23.364;2023-10-08T11:54:00;11.57;;;3.85;;
33190;SDS011;19554;42.652;23.364;2023-10-08T11:56:26;13.13;;;4.15;;
33190;SDS011;19554;42.652;23.364;2023-10-08T11:58:55;12.07;;;4.50;;
33190;SDS011;19554;42.652;23.364;2023-10-08T12:01:22;13.35;;;4.45;;
33190;SDS011;19554;42.652;23.364;2023-10-08T12:03:52;13.18;;;4.18;;
33190;SDS011;19554;42.652;23.364;2023-10-08T12:06:18;18.25;;;4.20;;
33190;SDS011;19554;42.652;23.364;2023-10-08T12:08:47;13.30;;;4.15;;
33190;SDS011;19554;42.652;23.364;2023-10-08T12:11:18;10.98;;;3.42;;
33190;SDS011;19554;42.652;23.364;2023-10-08T12:13:44;10.98;;;3.22;;
33190;SDS011;19554;42.652;23.364;2023-10-08T12:16:16;11.65;;;4.35;;
33190;SDS011;19554;42.652;23.364;2023-10-08T12:18:47;12.48;;;3.97;;
33190;SDS011;19554;42.652;23.364;2023-10-08T12:21:17;10.98;;;4.28;;
33190;SDS011;19554;42.652;23.364;2023-10-08T12:23:43;8.10;;;4.40;;
33190;SDS011;19554;42.652;23.364;2023-10-08T12:26:10;13.63;;;4.88;;
33190;SDS011;19554;42.652;23.364;2023-10-08T12:28:40;12.93;;;4.63;;
33190;SDS011;19554;42.652;23.364;2023-10-08T12:31:11;15.05;;;4.40;;
33190;SDS011;19554;42.652;23.364;2023-10-08T12:33:37;15.98;;;4.68;;
33190;SDS011;19554;42.652;23.364;2023-10-08T12:36:02;18.10;;;4.20;;
33190;SDS011;19554;42.652;23.364;2023-10-08T12:38:35;15.32;;;4.80;;
33190;SDS011;19554;42.652;23.364;2023-10-08T12:41:01;15.80;;;4.90;;
33190;SDS011;19554;42.652;23.364;2023-10-08T12:43:36;15.88;;;4.75;;
33190;SDS011;19554;42.652;23.364;2023-10-08T12:46:03;15.02;;;4.80;;
33190;SDS011;19554;42.652;23.364;2023-10-08T12:48:29;17.65;;;4.28;;
33190;SDS011;19554;42.652;23.364;2023-10-08T12:50:55;12.15;;;3.58;;
33190;SDS011;19554;42.652;23.364;2023-10-08T12:53:25;14.38;;;4.13;;
33190;SDS011;19554;42.652;23.364;2023-10-08T12:55:55;11.68;;;4.70;;
33190;SDS011;19554;42.652;23.364;2023-10-08T12:58:23;17.90;;;4.15;;
33190;SDS011;19554;42.652;23.364;2023-10-08T13:00:55;13.07;;;4.40;;
33190;SDS011;19554;42.652;23.364;2023-10-08T13:03:26;11.18;;;3.65;;
33190;SDS011;19554;42.652;23.364;2023-10-08T13:05:55;12.75;;;4.65;;
33190;SDS011;19554;42.652;23.364;2023-10-08T13:08:31;17.23;;;4.40;;
33190;SDS011;19554;42.652;23.364;2023-10-08T13:11:01;18.67;;;4.28;;
33190;SDS011;19554;42.652;23.364;2023-10-08T13:13:27;13.73;;;4.07;;
33190;SDS011;19554;42.652;23.364;2023-10-08T13:15:53;17.05;;;3.72;;
33190;SDS011;19554;42.652;23.364;2023-10-08T13:18:22;21.52;;;3.65;;
33190;SDS011;19554;42.652;23.364;2023-10-08T13:20:50;22.25;;;4.43;;
33190;SDS011;19554;42.652;23.364;2023-10-08T13:23:16;13.20;;;4.20;;
33190;SDS011;19554;42.652;23.364;2023-10-08T13:25:43;9.98;;;3.75;;
33190;SDS011;19554;42.652;23.364;2023-10-08T13:28:11;11.88;;;4.00;;
33190;SDS011;19554;42.652;23.364;2023-10-08T13:30:37;24.08;;;7.43;;
33190;SDS011;19554;42.652;23.364;2023-10-08T13:33:03;16.58;;;4.05;;
33190;SDS011;19554;42.652;23.364;2023-10-08T13:35:28;15.43;;;3.92;;
33190;SDS011;19554;42.652;23.364;2023-10-08T13:37:54;13.43;;;5.93;;
33190;SDS011;19554;42.652;23.364;2023-10-08T13:40:21;12.13;;;3.60;;
33190;SDS011;19554;42.652;23.364;2023-10-08T13:42:57;11.82;;;3.80;;
33190;SDS011;19554;42.652;23.364;2023-10-08T13:45:23;14.52;;;4.03;;
33190;SDS011;19554;42.652;23.364;2023-10-08T13:47:52;19.02;;;3.92;;
33190;SDS011;19554;42.652;23.364;2023-10-08T13:50:17;10.02;;;3.20;;
33190;SDS011;19554;42.652;23.364;2023-10-08T13:52:43;13.02;;;3.85;;
33190;SDS011;19554;42.652;23.364;2023-10-08T13:55:09;20.05;;;4.05;;
33190;SDS011;19554;42.652;23.364;2023-10-08T13:57:39;11.27;;;3.38;;
33190;SDS011;19554;42.652;23.364;2023-10-08T14:00:07;10.35;;;3.70;;
33190;SDS011;19554;42.652;23.364;2023-10-08T14:02:43;10.82;;;3.97;;
33190;SDS011;19554;42.652;23.364;2023-10-08T14:05:10;14.18;;;4.25;;
33190;SDS011;19554;42.652;23.364;2023-10-08T14:07:40;12.38;;;4.25;;
33190;SDS011;19554;42.652;23.364;2023-10-08T14:10:09;10.70;;;4.63;;
33190;SDS011;19554;42.652;23.364;2023-10-08T14:12:42;9.50;;;3.30;;
33190;SDS011;19554;42.652;23.364;2023-10-08T14:15:07;11.40;;;3.85;;
33190;SDS011;19554;42.652;23.364;2023-10-08T14:17:39;7.63;;;3.53;;
33190;SDS011;19554;42.652;23.364;2023-10-08T14:20:07;16.73;;;5.55;;
33190;SDS011;19554;42.652;23.364;2023-10-08T14:22:38;12.68;;;4.00;;
33190;SDS011;19554;42.652;23.364;2023-10-08T14:25:06;12.85;;;3.97;;
33190;SDS011;19554;42.652;23.364;2023-10-08T14:27:38;12.52;;;4.22;;
33190;SDS011;19554;42.652;23.364;2023-10-08T14:30:16;12.70;;;3.95;;
33190;SDS011;19554;42.652;23.364;2023-10-08T14:32:46;10.38;;;3.83;;
33190;SDS011;19554;42.652;23.364;2023-10-08T14:35:12;12.27;;;3.97;;
33190;SDS011;19554;42.652;23.364;2023-10-08T14:37:57;17.90;;;4.30;;
33190;SDS011;19554;42.652;23.364;2023-10-08T14:40:41;33.38;;;4.20;;
33190;SDS011;19554;42.652;23.364;2023-10-08T14:43:25;13.25;;;4.07;;
33190;SDS011;19554;42.652;23.364;2023-10-08T14:45:50;16.05;;;3.58;;
33190;SDS011;19554;42.652;23.364;2023-10-08T14:48:18;25.55;;;4.57;;
33190;SDS011;19554;42.652;23.364;2023-10-08T14:50:43;16.70;;;4.63;;
33190;SDS011;19554;42.652;23.364;2023-10-08T14:53:08;12.85;;;3.50;;
33190;SDS011;19554;42.652;23.364;2023-10-08T14:55:37;18.23;;;4.28;;